createdAt,value
2022-08-11T00:02:01.935Z,82.97
2022-08-11T00:04:36.994Z,78.05
2022-08-11T00:07:06.850Z,81.73
2022-08-11T00:09:38.914Z,78.96
2022-08-11T00:12:14.888Z,79.96
2022-08-11T00:14:44.715Z,76.42
2022-08-11T00:17:15.794Z,84.92
2022-08-11T00:20:11.994Z,77.70
2022-08-11T00:22:37.754Z,75.77
2022-08-11T00:25:11.214Z,86.02
2022-08-11T00:27:42.200Z,80.03
2022-08-11T00:30:12.211Z,78.08
2022-08-11T00:32:42.018Z,78.06
2022-08-11T00:35:52.470Z,77.23
2022-08-11T00:38:02.331Z,77.57
2022-08-11T00:40:37.944Z,84.20
2022-08-11T00:43:20.355Z,74.87
2022-08-11T00:46:10.122Z,81.56
2022-08-11T00:49:00.622Z,85.78
2022-08-11T00:52:04.909Z,75.88
2022-08-11T00:55:00.158Z,80.79
2022-08-11T00:57:57.993Z,81.77
2022-08-11T01:00:33.347Z,90.63
2022-08-11T01:03:20.007Z,83.60
2022-08-11T01:06:17.900Z,81.13
2022-08-11T01:09:22.970Z,85.93
2022-08-11T01:12:24.438Z,89.57
2022-08-11T01:15:56.041Z,90.91
2022-08-11T01:18:51.955Z,88.37
2022-08-11T01:21:59.122Z,90.59
2022-08-11T01:24:52.639Z,91.54
2022-08-11T01:27:50.531Z,90.51
2022-08-11T01:30:57.129Z,89.68
2022-08-11T01:34:04.932Z,90.29
2022-08-11T01:37:31.133Z,84.88
2022-08-11T01:40:44.639Z,85.42
2022-08-11T01:44:21.421Z,89.35
2022-08-11T01:46:55.419Z,88.94
2022-08-11T01:50:09.619Z,90.91
2022-08-11T01:52:30.140Z,93.84
2022-08-11T01:55:13.775Z,87.49
2022-08-11T01:57:49.928Z,93.50
2022-08-11T02:00:21.829Z,85.74
2022-08-11T02:02:57.646Z,86.03
2022-08-11T02:05:37.849Z,89.15
2022-08-11T02:08:15.971Z,90.81
2022-08-11T02:11:12.628Z,93.99
2022-08-11T02:13:47.313Z,93.67
2022-08-11T02:16:27.830Z,95.24
2022-08-11T02:19:24.001Z,95.93
2022-08-11T02:22:13.307Z,97.73
2022-08-11T02:24:48.780Z,100.00
2022-08-11T02:27:23.168Z,100.00
2022-08-11T02:30:04.939Z,97.59
2022-08-11T02:32:55.421Z,97.86
2022-08-11T02:35:28.900Z,96.15
2022-08-11T02:38:15.360Z,97.75
2022-08-11T02:40:53.514Z,100.00
2022-08-11T02:43:32.309Z,98.90
2022-08-11T02:46:18.720Z,95.62
2022-08-11T02:49:18.480Z,96.80
2022-08-11T02:52:02.276Z,97.62
2022-08-11T02:54:47.021Z,96.24
2022-08-11T02:57:25.426Z,100.00
2022-08-11T02:59:58.174Z,100.00
2022-08-11T03:02:41.160Z,100.00
2022-08-11T03:05:23.286Z,100.00
2022-08-11T03:08:09.395Z,100.00
2022-08-11T03:11:07.493Z,100.00
2022-08-11T03:14:00.677Z,100.00
2022-08-11T03:16:48.151Z,100.00
2022-08-11T03:19:24.131Z,100.00
2022-08-11T03:22:01.482Z,100.00
2022-08-11T03:24:40.466Z,100.00
2022-08-11T03:27:11.825Z,100.00
2022-08-11T03:29:54.613Z,100.00
2022-08-11T03:32:29.853Z,100.00
2022-08-11T03:35:01.583Z,100.00
2022-08-11T03:37:51.959Z,100.00
2022-08-11T03:41:06.182Z,100.00
2022-08-11T03:44:05.458Z,100.00
2022-08-11T03:46:57.599Z,100.00
2022-08-11T03:49:36.145Z,100.00
2022-08-11T03:52:14.443Z,100.00
2022-08-11T03:54:55.482Z,100.00
2022-08-11T03:58:25.739Z,100.00
2022-08-11T04:01:36.193Z,100.00
2022-08-11T04:04:39.789Z,100.00
2022-08-11T04:08:06.676Z,100.00
2022-08-11T04:11:07.823Z,100.00
2022-08-11T04:14:30.391Z,100.00
2022-08-11T04:17:19.586Z,100.00
2022-08-11T04:20:19.431Z,100.00
2022-08-11T04:23:03.514Z,100.00
2022-08-11T04:25:58.421Z,100.00
2022-08-11T04:28:56.100Z,100.00
2022-08-11T04:31:52.288Z,100.00
2022-08-11T04:34:50.673Z,100.00
2022-08-11T04:37:53.298Z,100.00
2022-08-11T04:40:44.974Z,100.00
2022-08-11T04:44:02.807Z,100.00
2022-08-11T04:48:02.039Z,100.00
2022-08-11T04:51:00.787Z,100.00
2022-08-11T04:54:18.928Z,100.00
2022-08-11T04:57:06.795Z,100.00
2022-08-11T05:00:07.170Z,100.00
2022-08-11T05:03:10.586Z,100.00
2022-08-11T05:06:02.758Z,100.00
2022-08-11T05:09:07.834Z,100.00
2022-08-11T05:12:08.893Z,100.00
2022-08-11T05:14:59.935Z,100.00
2022-08-11T05:17:54.435Z,100.00
2022-08-11T05:20:42.663Z,100.00
2022-08-11T05:23:30.126Z,100.00
2022-08-11T05:26:48.022Z,98.33
2022-08-11T05:29:45.335Z,100.00
2022-08-11T05:32:35.372Z,91.56
2022-08-11T05:35:07.457Z,91.01
2022-08-11T05:37:39.547Z,90.18
2022-08-11T05:40:27.477Z,88.51
2022-08-11T05:43:16.954Z,87.99
2022-08-11T05:46:14.557Z,88.25
2022-08-11T05:49:00.401Z,88.11
2022-08-11T05:51:55.370Z,85.91
2022-08-11T05:54:46.783Z,86.38
2022-08-11T05:57:42.342Z,85.08
2022-08-11T06:00:12.004Z,85.90
2022-08-11T06:02:45.473Z,84.83
2022-08-11T06:05:14.251Z,83.98
2022-08-11T06:07:49.236Z,80.03
2022-08-11T06:10:28.273Z,78.15
2022-08-11T06:12:58.223Z,80.93
2022-08-11T06:15:27.612Z,78.27
2022-08-11T06:17:58.612Z,78.60
2022-08-11T06:20:27.099Z,77.54
2022-08-11T06:23:00.309Z,77.94
2022-08-11T06:25:32.821Z,75.17
2022-08-11T06:28:01.459Z,76.55
2022-08-11T06:30:40.714Z,71.00
2022-08-11T06:33:13.180Z,73.19
2022-08-11T06:35:49.392Z,73.32
2022-08-11T06:38:29.193Z,72.12
2022-08-11T06:41:17.895Z,67.96
2022-08-11T06:43:56.112Z,70.31
2022-08-11T06:46:31.499Z,69.23
2022-08-11T06:49:03.703Z,68.74
2022-08-11T06:51:32.774Z,70.04
2022-08-11T06:54:05.126Z,66.40
2022-08-11T06:57:12.517Z,65.58
2022-08-11T07:00:00.939Z,64.50
2022-08-11T07:02:33.670Z,64.45
2022-08-11T07:05:09.278Z,63.29
2022-08-11T07:08:33.827Z,61.43
2022-08-11T07:11:40.057Z,64.81
2022-08-11T07:14:26.969Z,64.73
2022-08-11T07:16:55.980Z,63.19
2022-08-11T07:19:51.012Z,67.10
2022-08-11T07:22:47.454Z,62.17
2022-08-11T07:25:34.838Z,60.64
2022-08-11T07:28:22.355Z,58.32
2022-08-11T07:30:58.439Z,59.37
2022-08-11T07:34:06.499Z,57.60
2022-08-11T07:36:20.668Z,58.07
2022-08-11T07:38:56.348Z,58.60
2022-08-11T07:41:28.590Z,58.78
2022-08-11T07:44:08.781Z,60.69
2022-08-11T07:46:58.031Z,57.59
2022-08-11T07:49:45.539Z,57.71
2022-08-11T07:52:30.386Z,54.34
2022-08-11T07:55:02.219Z,55.31
2022-08-11T07:58:14.622Z,54.96
2022-08-11T08:00:55.687Z,56.59
2022-08-11T08:03:53.641Z,52.32
2022-08-11T08:06:41.147Z,52.81
2022-08-11T08:09:28.174Z,51.51
2022-08-11T08:12:15.341Z,49.12
2022-08-11T08:15:01.517Z,50.12
2022-08-11T08:18:09.349Z,50.68
2022-08-11T08:20:39.150Z,52.08
2022-08-11T08:23:07.965Z,54.92
2022-08-11T08:25:39.115Z,51.39
2022-08-11T08:28:10.986Z,48.69
2022-08-11T08:30:51.091Z,51.46
2022-08-11T08:33:23.189Z,51.77
2022-08-11T08:36:11.145Z,49.20
2022-08-11T08:38:40.541Z,47.06
2022-08-11T08:41:09.368Z,45.87
2022-08-11T08:43:48.638Z,49.43
2022-08-11T08:46:20.368Z,45.29
2022-08-11T08:48:49.164Z,45.23
2022-08-11T08:52:02.395Z,45.96
2022-08-11T08:54:30.026Z,49.30
2022-08-11T08:56:58.417Z,48.47
2022-08-11T08:59:47.379Z,43.84
2022-08-11T09:02:17.289Z,45.12
2022-08-11T09:04:47.914Z,47.61
2022-08-11T09:07:18.411Z,43.05
2022-08-11T09:09:50.316Z,42.30
2022-08-11T09:12:38.439Z,47.71
2022-08-11T09:15:11.583Z,47.16
2022-08-11T09:17:42.433Z,44.66
2022-08-11T09:20:14.223Z,46.07
2022-08-11T09:23:41.674Z,45.65
2022-08-11T09:26:08.663Z,43.78
2022-08-11T09:28:37.849Z,42.65
2022-08-11T09:31:10.036Z,42.83
2022-08-11T09:33:38.407Z,42.11
2022-08-11T09:36:27.582Z,42.65
2022-08-11T09:39:14.442Z,44.74
2022-08-11T09:42:00.489Z,44.87
2022-08-11T09:44:49.512Z,43.04
2022-08-11T09:47:24.384Z,48.38
2022-08-11T09:49:55.089Z,43.94
2022-08-11T09:52:25.022Z,42.76
2022-08-11T09:54:54.385Z,42.00
2022-08-11T09:57:41.173Z,43.36
2022-08-11T10:00:13.384Z,44.94
2022-08-11T10:02:47.065Z,45.48
2022-08-11T10:05:35.736Z,44.17
2022-08-11T10:08:04.768Z,44.27
2022-08-11T10:10:36.831Z,43.27
2022-08-11T10:14:29.352Z,41.82
2022-08-11T10:16:03.606Z,40.34
2022-08-11T10:18:52.619Z,40.50
2022-08-11T10:21:29.087Z,42.56
2022-08-11T10:24:17.194Z,43.07
2022-08-11T10:26:54.285Z,40.75
2022-08-11T10:29:45.249Z,40.16
2022-08-11T10:32:46.322Z,38.49
2022-08-11T10:35:29.215Z,38.31
2022-08-11T10:38:07.485Z,41.45
2022-08-11T10:40:39.862Z,41.55
2022-08-11T10:43:13.318Z,42.28
2022-08-11T10:46:15.880Z,40.44
2022-08-11T10:48:44.141Z,40.78
2022-08-11T10:51:50.561Z,41.81
2022-08-11T10:54:24.226Z,39.46
2022-08-11T10:57:11.455Z,39.12
2022-08-11T10:59:39.720Z,39.31
2022-08-11T11:02:07.698Z,38.85
2022-08-11T11:04:50.923Z,36.63
2022-08-11T11:07:24.620Z,38.82
2022-08-11T11:09:56.911Z,39.62
2022-08-11T11:12:45.569Z,39.48
2022-08-11T11:15:32.900Z,38.26
2022-08-11T11:18:06.911Z,39.83
2022-08-11T11:20:43.815Z,39.95
2022-08-11T11:23:21.401Z,39.22
2022-08-11T11:26:11.188Z,38.79
2022-08-11T11:29:04.128Z,37.26
2022-08-11T11:31:47.141Z,37.84
2022-08-11T11:34:24.692Z,33.21
2022-08-11T11:36:56.726Z,35.25
2022-08-11T11:39:28.405Z,34.99
2022-08-11T11:41:59.079Z,32.09
2022-08-11T11:44:28.195Z,33.01
2022-08-11T11:46:56.872Z,30.11
2022-08-11T11:49:28.155Z,33.04
2022-08-11T11:51:58.493Z,34.38
2022-08-11T11:54:30.970Z,31.18
2022-08-11T11:57:20.940Z,31.90
2022-08-11T12:00:08.236Z,31.44
2022-08-11T12:02:37.024Z,32.21
2022-08-11T12:05:06.369Z,34.12
2022-08-11T12:07:56.938Z,31.28
2022-08-11T12:10:45.763Z,32.32
2022-08-11T12:13:32.448Z,33.58
2022-08-11T12:16:33.990Z,32.07
2022-08-11T12:18:54.120Z,30.34
2022-08-11T12:21:22.638Z,30.22
2022-08-11T12:24:08.705Z,31.39
2022-08-11T12:27:16.566Z,30.99
2022-08-11T12:29:54.242Z,33.04
2022-08-11T12:32:24.258Z,34.06
2022-08-11T12:34:52.741Z,30.15
2022-08-11T12:37:24.824Z,33.20
2022-08-11T12:40:49.495Z,32.62
2022-08-11T12:43:37.783Z,30.89
2022-08-11T12:46:09.482Z,31.74
2022-08-11T12:49:02.028Z,30.80
2022-08-11T12:52:11.726Z,29.81
2022-08-11T12:54:51.387Z,28.64
2022-08-11T12:57:44.915Z,28.98
2022-08-11T13:00:34.113Z,29.16
2022-08-11T13:03:20.976Z,27.70
2022-08-11T13:05:50.437Z,29.19
2022-08-11T13:08:18.728Z,26.44
2022-08-11T13:11:05.369Z,28.40
2022-08-11T13:13:54.031Z,29.35
2022-08-11T13:16:24.810Z,26.69
2022-08-11T13:18:53.767Z,28.45
2022-08-11T13:21:22.817Z,29.06
2022-08-11T13:24:01.919Z,27.88
2022-08-11T13:26:43.601Z,27.48
2022-08-11T13:29:19.638Z,28.24
2022-08-11T13:31:49.695Z,28.41
2022-08-11T13:34:19.965Z,28.12
2022-08-11T13:36:50.273Z,29.27
2022-08-11T13:39:19.150Z,28.28
2022-08-11T13:41:48.538Z,28.05
2022-08-11T13:44:24.809Z,30.70
2022-08-11T13:46:57.335Z,28.05
2022-08-11T13:49:26.134Z,29.13
2022-08-11T13:51:55.240Z,29.14
2022-08-11T13:54:24.871Z,27.77
2022-08-11T13:56:56.057Z,28.49
2022-08-11T13:59:30.902Z,29.93
2022-08-11T14:02:22.217Z,27.60
2022-08-11T14:04:57.417Z,28.60
2022-08-11T14:07:28.627Z,27.63
2022-08-11T14:10:00.225Z,28.47
2022-08-11T14:12:47.868Z,27.82
2022-08-11T14:15:20.000Z,27.71
2022-08-11T14:17:55.963Z,28.45
2022-08-11T14:20:39.288Z,29.31
2022-08-11T14:23:11.049Z,27.92
2022-08-11T14:26:02.507Z,28.28
2022-08-11T14:28:37.427Z,26.97
2022-08-11T14:31:09.389Z,26.51
2022-08-11T14:33:59.528Z,29.37
2022-08-11T14:36:29.766Z,26.88
2022-08-11T14:38:58.210Z,28.66
2022-08-11T14:42:07.412Z,27.26
2022-08-11T14:44:52.892Z,27.80
2022-08-11T14:47:23.798Z,27.28
2022-08-11T14:50:09.713Z,29.51
2022-08-11T14:52:39.412Z,30.03
2022-08-11T14:55:27.216Z,31.30
2022-08-11T14:57:57.499Z,29.83
2022-08-11T15:00:26.591Z,28.13
2022-08-11T15:03:13.714Z,29.39
2022-08-11T15:05:57.591Z,29.83
2022-08-11T15:08:48.541Z,32.49
2022-08-11T15:11:35.292Z,30.03
2022-08-11T15:14:06.229Z,29.19
2022-08-11T15:16:53.570Z,28.66
2022-08-11T15:19:22.202Z,27.29
2022-08-11T15:22:27.780Z,31.13
2022-08-11T15:24:55.958Z,32.38
2022-08-11T15:27:43.201Z,31.62
2022-08-11T15:30:33.165Z,33.63
2022-08-11T15:33:24.726Z,34.99
2022-08-11T15:36:11.179Z,38.82
2022-08-11T15:38:45.811Z,36.98
2022-08-11T15:41:35.873Z,39.83
2022-08-11T15:44:38.737Z,37.85
2022-08-11T15:47:14.350Z,38.05
2022-08-11T15:50:10.893Z,38.58
2022-08-11T15:52:43.996Z,39.80
2022-08-11T15:55:13.324Z,39.93
2022-08-11T15:58:00.145Z,41.37
2022-08-11T16:00:46.494Z,40.04
2022-08-11T16:03:54.445Z,39.37
2022-08-11T16:06:23.923Z,41.17
2022-08-11T16:08:56.334Z,41.12
2022-08-11T16:11:27.607Z,39.84
2022-08-11T16:14:14.300Z,39.69
2022-08-11T16:16:42.777Z,41.63
2022-08-11T16:19:12.225Z,41.09
2022-08-11T16:21:43.101Z,41.21
2022-08-11T16:26:30.482Z,41.17
2022-08-11T16:27:13.148Z,42.70
2022-08-11T16:29:45.631Z,40.92
2022-08-11T16:32:20.560Z,43.25
2022-08-11T16:35:13.734Z,41.46
2022-08-11T16:38:00.113Z,43.10
2022-08-11T16:40:29.494Z,42.69
2022-08-11T16:43:17.670Z,42.52
2022-08-11T16:46:04.384Z,44.40
2022-08-11T16:48:38.249Z,44.41
2022-08-11T16:51:08.094Z,43.14
2022-08-11T16:53:45.959Z,42.89
2022-08-11T16:56:31.224Z,42.54
2022-08-11T16:59:14.579Z,43.50
2022-08-11T17:01:44.745Z,44.67
2022-08-11T17:04:38.059Z,43.20
2022-08-11T17:07:42.129Z,44.26
2022-08-11T17:10:51.089Z,43.94
2022-08-11T17:13:27.612Z,43.44
2022-08-11T17:16:08.529Z,43.72
2022-08-11T17:18:43.277Z,43.02
2022-08-11T17:21:16.065Z,43.11
2022-08-11T17:23:47.118Z,43.49
2022-08-11T17:26:19.161Z,43.95
2022-08-11T17:28:51.748Z,43.38
2022-08-11T17:31:40.012Z,43.03
2022-08-11T17:34:26.396Z,43.64
2022-08-11T17:36:55.752Z,44.43
2022-08-11T17:39:29.319Z,44.26
2022-08-11T17:42:16.262Z,44.53
2022-08-11T17:45:03.184Z,45.20
2022-08-11T17:47:51.390Z,44.69
2022-08-11T17:50:19.975Z,45.31
2022-08-11T17:53:06.537Z,45.92
2022-08-11T17:55:54.405Z,45.92
2022-08-11T17:58:41.720Z,45.88
2022-08-11T18:01:12.151Z,45.67
2022-08-11T18:03:56.393Z,45.74
2022-08-11T18:06:33.750Z,45.40
2022-08-11T18:09:22.544Z,46.58
2022-08-11T18:12:10.837Z,46.43
2022-08-11T18:14:59.219Z,47.22
2022-08-11T18:17:44.609Z,48.45
2022-08-11T18:20:31.164Z,48.44
2022-08-11T18:23:20.217Z,47.69
2022-08-11T18:26:07.645Z,47.65
2022-08-11T18:28:58.146Z,48.17
2022-08-11T18:31:44.465Z,49.36
2022-08-11T18:34:34.930Z,49.56
2022-08-11T18:37:29.084Z,51.00
2022-08-11T18:40:17.306Z,52.18
2022-08-11T18:43:05.750Z,54.76
2022-08-11T18:46:06.460Z,57.28
2022-08-11T18:48:54.971Z,58.16
2022-08-11T18:51:41.470Z,63.68
2022-08-11T18:54:30.254Z,66.41
2022-08-11T18:57:19.683Z,62.56
2022-08-11T19:00:07.191Z,61.86
2022-08-11T19:02:55.710Z,63.48
2022-08-11T19:06:35.841Z,64.15
2022-08-11T19:08:50.136Z,65.05
2022-08-11T19:11:42.734Z,67.88
2022-08-11T19:14:31.637Z,66.25
2022-08-11T19:17:43.498Z,68.13
2022-08-11T19:20:29.983Z,66.12
2022-08-11T19:23:17.312Z,73.01
2022-08-11T19:26:03.806Z,71.82
2022-08-11T19:28:52.839Z,68.09
2022-08-11T19:31:44.507Z,67.18
2022-08-11T19:34:31.984Z,71.99
2022-08-11T19:37:24.061Z,72.63
2022-08-11T19:40:12.304Z,75.15
2022-08-11T19:42:59.785Z,70.94
2022-08-11T19:45:52.956Z,76.32
2022-08-11T19:48:39.557Z,79.18
2022-08-11T19:51:26.866Z,73.88
2022-08-11T19:54:13.344Z,78.07
2022-08-11T19:57:00.160Z,81.27
2022-08-11T19:59:46.418Z,79.39
2022-08-11T20:02:33.120Z,80.96
2022-08-11T20:05:18.871Z,80.63
2022-08-11T20:08:04.701Z,82.39
2022-08-11T20:10:52.086Z,79.12
2022-08-11T20:13:41.596Z,78.82
2022-08-11T20:16:29.630Z,81.12
2022-08-11T20:19:18.188Z,79.80
2022-08-11T20:22:08.269Z,75.83
2022-08-11T20:24:56.591Z,80.33
2022-08-11T20:27:43.045Z,81.72
2022-08-11T20:30:29.462Z,81.09
2022-08-11T20:33:15.433Z,79.37
2022-08-11T20:36:02.547Z,84.34
2022-08-11T20:38:51.310Z,85.90
2022-08-11T20:41:58.481Z,83.63
2022-08-11T20:44:45.937Z,81.11
2022-08-11T20:47:59.167Z,91.21
2022-08-11T20:50:40.811Z,84.42
2022-08-11T20:53:29.286Z,82.37
2022-08-11T20:56:17.048Z,84.16
2022-08-11T20:59:21.737Z,73.64
2022-08-11T21:02:09.859Z,70.37
2022-08-11T21:04:56.333Z,68.08
2022-08-11T21:07:43.855Z,65.15
2022-08-11T21:10:44.654Z,65.41
2022-08-11T21:13:34.376Z,63.02
2022-08-11T21:16:25.400Z,64.82
2022-08-11T21:19:59.527Z,63.74
2022-08-11T21:22:29.049Z,69.50
2022-08-11T21:25:16.097Z,75.25
2022-08-11T21:28:06.236Z,80.28
2022-08-11T21:30:57.652Z,79.59
2022-08-11T21:33:46.058Z,81.01
2022-08-11T21:36:32.971Z,77.79
2022-08-11T21:39:20.377Z,73.29
2022-08-11T21:42:12.054Z,78.41
2022-08-11T21:45:01.023Z,82.60
2022-08-11T21:47:48.463Z,81.13
2022-08-11T21:50:33.843Z,70.11
2022-08-11T21:53:19.616Z,76.11
2022-08-11T21:56:05.425Z,78.36
2022-08-11T21:58:52.123Z,77.66
2022-08-11T22:01:39.840Z,80.67
2022-08-11T22:04:25.951Z,71.41
2022-08-11T22:07:11.705Z,69.92
2022-08-11T22:09:57.003Z,71.07
2022-08-11T22:12:45.325Z,70.34
2022-08-11T22:15:31.172Z,68.29
2022-08-11T22:18:20.067Z,64.49
2022-08-11T22:21:06.042Z,63.52
2022-08-11T22:23:56.456Z,63.55
2022-08-11T22:26:42.722Z,68.93
2022-08-11T22:29:50.881Z,64.05
2022-08-11T22:32:38.439Z,64.86
2022-08-11T22:35:28.688Z,62.98
2022-08-11T22:38:15.756Z,62.39
2022-08-11T22:41:01.592Z,63.49
2022-08-11T22:43:47.555Z,66.15
2022-08-11T22:46:33.881Z,67.26
2022-08-11T22:49:20.224Z,66.60
2022-08-11T22:52:09.018Z,66.18
2022-08-11T22:54:55.316Z,65.77
2022-08-11T22:57:55.170Z,70.88
2022-08-11T23:00:47.230Z,65.68
2022-08-11T23:03:37.446Z,62.23
2022-08-11T23:06:25.600Z,63.91
2022-08-11T23:09:12.156Z,62.56
2022-08-11T23:12:07.193Z,62.52
2022-08-11T23:14:56.311Z,63.11
2022-08-11T23:17:42.669Z,62.68
2022-08-11T23:20:36.975Z,62.74
2022-08-11T23:23:27.059Z,65.81
2022-08-11T23:26:14.656Z,65.27
2022-08-11T23:29:04.530Z,64.07
2022-08-11T23:31:53.877Z,66.25
2022-08-11T23:35:04.737Z,65.57
2022-08-11T23:37:45.455Z,68.37
2022-08-11T23:40:30.753Z,69.77
2022-08-11T23:43:18.747Z,66.78
2022-08-11T23:46:04.102Z,68.96
2022-08-11T23:48:50.582Z,70.76
2022-08-11T23:51:37.656Z,67.37
2022-08-11T23:54:27.208Z,68.27
2022-08-11T23:57:13.518Z,69.54
